sensor_id;sensor_type;location;lat;lon;timestamp;P1;durP1;ratioP1;P2;durP2;ratioP2
51491;SDS011;37569;50.548;8.778;2022-12-31T00:01:33;8.6;;;7.1;;
51491;SDS011;37569;50.548;8.778;2022-12-31T00:06:34;8.1;;;6.8;;
51491;SDS011;37569;50.548;8.778;2022-12-31T00:11:34;7.1;;;6.3;;
51491;SDS011;37569;50.548;8.778;2022-12-31T00:16:35;6.9;;;5.6;;
51491;SDS011;37569;50.548;8.778;2022-12-31T00:21:35;6.3;;;5.5;;
51491;SDS011;37569;50.548;8.778;2022-12-31T00:26:35;5.2;;;4.6;;
51491;SDS011;37569;50.548;8.778;2022-12-31T00:31:36;3.8;;;3.4;;
51491;SDS011;37569;50.548;8.778;2022-12-31T00:36:37;2.5;;;2.2;;
51491;SDS011;37569;50.548;8.778;2022-12-31T00:41:37;2.4;;;2.1;;
51491;SDS011;37569;50.548;8.778;2022-12-31T00:46:37;2.8;;;2.1;;
51491;SDS011;37569;50.548;8.778;2022-12-31T00:51:38;2.5;;;1.7;;
51491;SDS011;37569;50.548;8.778;2022-12-31T00:56:38;2.4;;;1.8;;
51491;SDS011;37569;50.548;8.778;2022-12-31T01:01:39;3.2;;;1.7;;
51491;SDS011;37569;50.548;8.778;2022-12-31T01:06:40;2.2;;;2;;
51491;SDS011;37569;50.548;8.778;2022-12-31T01:11:40;2.1;;;1.8;;
51491;SDS011;37569;50.548;8.778;2022-12-31T01:16:42;2.2;;;2;;
51491;SDS011;37569;50.548;8.778;2022-12-31T01:21:41;3.1;;;1.6;;
51491;SDS011;37569;50.548;8.778;2022-12-31T01:31:42;2.5;;;1.6;;
51491;SDS011;37569;50.548;8.778;2022-12-31T01:36:42;1.9;;;1.4;;
51491;SDS011;37569;50.548;8.778;2022-12-31T01:41:44;1.3;;;1.2;;
51491;SDS011;37569;50.548;8.778;2022-12-31T01:46:45;1.9;;;1.3;;
51491;SDS011;37569;50.548;8.778;2022-12-31T01:51:45;1.8;;;1.1;;
51491;SDS011;37569;50.548;8.778;2022-12-31T01:56:44;1.6;;;1.2;;
51491;SDS011;37569;50.548;8.778;2022-12-31T02:01:45;2.2;;;1.3;;
51491;SDS011;37569;50.548;8.778;2022-12-31T02:06:46;2;;;1.4;;
51491;SDS011;37569;50.548;8.778;2022-12-31T02:11:46;1.3;;;1;;
51491;SDS011;37569;50.548;8.778;2022-12-31T02:16:48;2;;;1.3;;
51491;SDS011;37569;50.548;8.778;2022-12-31T02:21:53;1.1;;;1;;
51491;SDS011;37569;50.548;8.778;2022-12-31T02:26:50;1.2;;;1.1;;
51491;SDS011;37569;50.548;8.778;2022-12-31T02:31:49;1.2;;;1.1;;
51491;SDS011;37569;50.548;8.778;2022-12-31T02:36:49;1.2;;;0.9;;
51491;SDS011;37569;50.548;8.778;2022-12-31T02:41:50;0.8;;;0.8;;
51491;SDS011;37569;50.548;8.778;2022-12-31T02:46:53;0.8;;;0.8;;
51491;SDS011;37569;50.548;8.778;2022-12-31T02:51:53;1;;;0.7;;
51491;SDS011;37569;50.548;8.778;2022-12-31T02:56:53;0.7;;;0.7;;
51491;SDS011;37569;50.548;8.778;2022-12-31T03:01:52;1.3;;;0.9;;
51491;SDS011;37569;50.548;8.778;2022-12-31T03:06:52;0.7;;;0.7;;
51491;SDS011;37569;50.548;8.778;2022-12-31T03:11:53;0.8;;;0.8;;
51491;SDS011;37569;50.548;8.778;2022-12-31T03:16:53;2.1;;;0.9;;
51491;SDS011;37569;50.548;8.778;2022-12-31T03:21:54;1.4;;;1;;
51491;SDS011;37569;50.548;8.778;2022-12-31T03:26:54;1.5;;;0.8;;
51491;SDS011;37569;50.548;8.778;2022-12-31T03:31:55;2.2;;;1.1;;
51491;SDS011;37569;50.548;8.778;2022-12-31T03:36:55;1;;;0.9;;
51491;SDS011;37569;50.548;8.778;2022-12-31T03:41:56;1.2;;;0.9;;
51491;SDS011;37569;50.548;8.778;2022-12-31T03:46:57;0.7;;;0.7;;
51491;SDS011;37569;50.548;8.778;2022-12-31T03:51:57;2.3;;;1.2;;
51491;SDS011;37569;50.548;8.778;2022-12-31T03:56:58;1.1;;;0.9;;
51491;SDS011;37569;50.548;8.778;2022-12-31T04:01:58;0.9;;;0.8;;
51491;SDS011;37569;50.548;8.778;2022-12-31T04:06:59;1.7;;;0.8;;
51491;SDS011;37569;50.548;8.778;2022-12-31T04:11:59;1.4;;;0.9;;
51491;SDS011;37569;50.548;8.778;2022-12-31T04:17:00;1.6;;;1;;
51491;SDS011;37569;50.548;8.778;2022-12-31T04:22:01;1.3;;;1;;
51491;SDS011;37569;50.548;8.778;2022-12-31T04:27:01;1.6;;;1;;
51491;SDS011;37569;50.548;8.778;2022-12-31T04:32:02;1.6;;;1;;
51491;SDS011;37569;50.548;8.778;2022-12-31T04:37:02;2.2;;;1.1;;
51491;SDS011;37569;50.548;8.778;2022-12-31T04:42:03;1.7;;;1.1;;
51491;SDS011;37569;50.548;8.778;2022-12-31T04:47:03;2.2;;;1;;
51491;SDS011;37569;50.548;8.778;2022-12-31T04:52:04;1.1;;;0.9;;
51491;SDS011;37569;50.548;8.778;2022-12-31T04:57:05;1.5;;;0.9;;
51491;SDS011;37569;50.548;8.778;2022-12-31T05:02:05;1.5;;;1;;
51491;SDS011;37569;50.548;8.778;2022-12-31T05:07:06;2;;;1;;
51491;SDS011;37569;50.548;8.778;2022-12-31T05:12:06;1.2;;;1.1;;
51491;SDS011;37569;50.548;8.778;2022-12-31T05:17:07;1.9;;;1.2;;
51491;SDS011;37569;50.548;8.778;2022-12-31T05:22:07;1.1;;;1;;
51491;SDS011;37569;50.548;8.778;2022-12-31T05:27:08;1.6;;;1;;
51491;SDS011;37569;50.548;8.778;2022-12-31T05:32:09;1.1;;;1;;
51491;SDS011;37569;50.548;8.778;2022-12-31T05:37:09;1.4;;;1.1;;
51491;SDS011;37569;50.548;8.778;2022-12-31T05:42:10;1.1;;;1;;
51491;SDS011;37569;50.548;8.778;2022-12-31T05:47:11;1.5;;;1.1;;
51491;SDS011;37569;50.548;8.778;2022-12-31T05:52:11;1.1;;;1;;
51491;SDS011;37569;50.548;8.778;2022-12-31T05:57:12;1.3;;;1.1;;
51491;SDS011;37569;50.548;8.778;2022-12-31T06:02:12;1.3;;;1.2;;
51491;SDS011;37569;50.548;8.778;2022-12-31T06:07:13;1.7;;;1.1;;
51491;SDS011;37569;50.548;8.778;2022-12-31T06:12:14;1.9;;;1.2;;
51491;SDS011;37569;50.548;8.778;2022-12-31T06:17:14;1.7;;;1.4;;
51491;SDS011;37569;50.548;8.778;2022-12-31T06:22:15;1.5;;;1.3;;
51491;SDS011;37569;50.548;8.778;2022-12-31T06:27:15;1.8;;;1.3;;
51491;SDS011;37569;50.548;8.778;2022-12-31T06:32:16;3.7;;;1.2;;
51491;SDS011;37569;50.548;8.778;2022-12-31T06:37:17;1.1;;;1;;
51491;SDS011;37569;50.548;8.778;2022-12-31T06:42:17;1.5;;;1.1;;
51491;SDS011;37569;50.548;8.778;2022-12-31T06:47:18;2.1;;;1.3;;
51491;SDS011;37569;50.548;8.778;2022-12-31T06:52:19;1.5;;;1.3;;
51491;SDS011;37569;50.548;8.778;2022-12-31T06:57:19;1.7;;;1.4;;
51491;SDS011;37569;50.548;8.778;2022-12-31T07:02:23;2.4;;;1.2;;
51491;SDS011;37569;50.548;8.778;2022-12-31T07:07:23;1.8;;;1.2;;
51491;SDS011;37569;50.548;8.778;2022-12-31T07:12:27;3.4;;;1.5;;
51491;SDS011;37569;50.548;8.778;2022-12-31T07:17:24;3.1;;;1.3;;
51491;SDS011;37569;50.548;8.778;2022-12-31T07:22:22;2.3;;;1.2;;
51491;SDS011;37569;50.548;8.778;2022-12-31T07:27:27;2.9;;;1.2;;
51491;SDS011;37569;50.548;8.778;2022-12-31T07:32:27;1.8;;;1.2;;
51491;SDS011;37569;50.548;8.778;2022-12-31T07:37:26;1.7;;;1.2;;
51491;SDS011;37569;50.548;8.778;2022-12-31T07:42:26;1.9;;;1.2;;
51491;SDS011;37569;50.548;8.778;2022-12-31T07:47:26;2.2;;;1.3;;
51491;SDS011;37569;50.548;8.778;2022-12-31T07:52:26;2.2;;;1.2;;
51491;SDS011;37569;50.548;8.778;2022-12-31T07:57:30;1.5;;;1.1;;
51491;SDS011;37569;50.548;8.778;2022-12-31T08:02:33;3.5;;;1.2;;
51491;SDS011;37569;50.548;8.778;2022-12-31T08:07:31;3.5;;;1.2;;
51491;SDS011;37569;50.548;8.778;2022-12-31T08:12:30;1.8;;;1.3;;
51491;SDS011;37569;50.548;8.778;2022-12-31T08:17:29;2.2;;;1.4;;
51491;SDS011;37569;50.548;8.778;2022-12-31T08:22:38;1.4;;;1.3;;
51491;SDS011;37569;50.548;8.778;2022-12-31T08:27:32;2.2;;;1.4;;
51491;SDS011;37569;50.548;8.778;2022-12-31T08:32:33;2.8;;;1.4;;
51491;SDS011;37569;50.548;8.778;2022-12-31T08:37:34;3.4;;;1.5;;
51491;SDS011;37569;50.548;8.778;2022-12-31T08:42:36;2.8;;;1.3;;
51491;SDS011;37569;50.548;8.778;2022-12-31T08:47:36;2.3;;;1.4;;
51491;SDS011;37569;50.548;8.778;2022-12-31T08:52:34;3.3;;;1.7;;
51491;SDS011;37569;50.548;8.778;2022-12-31T08:57:36;2.6;;;1.7;;
51491;SDS011;37569;50.548;8.778;2022-12-31T09:02:39;1.7;;;1.4;;
51491;SDS011;37569;50.548;8.778;2022-12-31T09:07:37;2.1;;;1.4;;
51491;SDS011;37569;50.548;8.778;2022-12-31T09:12:38;1.6;;;1.4;;
51491;SDS011;37569;50.548;8.778;2022-12-31T09:17:41;2.9;;;1.9;;
51491;SDS011;37569;50.548;8.778;2022-12-31T09:22:38;3.4;;;1.6;;
51491;SDS011;37569;50.548;8.778;2022-12-31T09:27:39;2.6;;;1.5;;
51491;SDS011;37569;50.548;8.778;2022-12-31T09:32:41;1.9;;;1.6;;
51491;SDS011;37569;50.548;8.778;2022-12-31T09:37:42;4.7;;;3.5;;
51491;SDS011;37569;50.548;8.778;2022-12-31T09:42:54;3.4;;;1.4;;
51491;SDS011;37569;50.548;8.778;2022-12-31T09:47:47;3.3;;;1.2;;
51491;SDS011;37569;50.548;8.778;2022-12-31T09:52:45;2.7;;;1.2;;
51491;SDS011;37569;50.548;8.778;2022-12-31T09:57:44;1.9;;;1.4;;
51491;SDS011;37569;50.548;8.778;2022-12-31T10:02:49;2;;;1.3;;
51491;SDS011;37569;50.548;8.778;2022-12-31T10:07:45;1.5;;;1.2;;
51491;SDS011;37569;50.548;8.778;2022-12-31T10:13:04;2.9;;;1.8;;
51491;SDS011;37569;50.548;8.778;2022-12-31T10:17:49;3.7;;;2.2;;
51491;SDS011;37569;50.548;8.778;2022-12-31T10:22:58;4.4;;;2.3;;
51491;SDS011;37569;50.548;8.778;2022-12-31T10:27:47;5.1;;;2.9;;
51491;SDS011;37569;50.548;8.778;2022-12-31T10:32:51;3.4;;;1.6;;
51491;SDS011;37569;50.548;8.778;2022-12-31T10:37:49;1.7;;;1.2;;
51491;SDS011;37569;50.548;8.778;2022-12-31T10:43:58;1.9;;;1.2;;
51491;SDS011;37569;50.548;8.778;2022-12-31T10:47:55;5;;;1.5;;
51491;SDS011;37569;50.548;8.778;2022-12-31T10:53:10;2.9;;;2.4;;
51491;SDS011;37569;50.548;8.778;2022-12-31T10:58:04;5.8;;;3.1;;
51491;SDS011;37569;50.548;8.778;2022-12-31T11:04:03;2.4;;;1.4;;
51491;SDS011;37569;50.548;8.778;2022-12-31T11:07:55;5.3;;;2.4;;
51491;SDS011;37569;50.548;8.778;2022-12-31T11:12:58;4;;;2.4;;
51491;SDS011;37569;50.548;8.778;2022-12-31T11:17:56;2.4;;;1.8;;
51491;SDS011;37569;50.548;8.778;2022-12-31T11:22:56;2.6;;;1.4;;
51491;SDS011;37569;50.548;8.778;2022-12-31T11:28:02;1.9;;;1.5;;
51491;SDS011;37569;50.548;8.778;2022-12-31T11:32:59;1.6;;;1.4;;
51491;SDS011;37569;50.548;8.778;2022-12-31T11:37:57;2.3;;;1.3;;
51491;SDS011;37569;50.548;8.778;2022-12-31T11:42:57;2.3;;;1.3;;
51491;SDS011;37569;50.548;8.778;2022-12-31T11:48:00;2;;;1.3;;
51491;SDS011;37569;50.548;8.778;2022-12-31T11:53:01;2.9;;;1.2;;
51491;SDS011;37569;50.548;8.778;2022-12-31T11:58:00;3;;;1.4;;
51491;SDS011;37569;50.548;8.778;2022-12-31T12:03:01;2.3;;;1.4;;
51491;SDS011;37569;50.548;8.778;2022-12-31T12:08:01;2.3;;;1.5;;
51491;SDS011;37569;50.548;8.778;2022-12-31T12:13:09;2.6;;;1.5;;
51491;SDS011;37569;50.548;8.778;2022-12-31T12:18:04;3.5;;;1.4;;
51491;SDS011;37569;50.548;8.778;2022-12-31T12:23:12;2.3;;;1.4;;
51491;SDS011;37569;50.548;8.778;2022-12-31T12:28:20;2.9;;;1.4;;
51491;SDS011;37569;50.548;8.778;2022-12-31T12:33:04;3;;;1.5;;
51491;SDS011;37569;50.548;8.778;2022-12-31T12:38:06;3;;;1.7;;
51491;SDS011;37569;50.548;8.778;2022-12-31T12:43:16;2.9;;;1.9;;
51491;SDS011;37569;50.548;8.778;2022-12-31T12:48:07;3;;;1.8;;
51491;SDS011;37569;50.548;8.778;2022-12-31T12:53:11;8.3;;;5;;
51491;SDS011;37569;50.548;8.778;2022-12-31T12:58:11;5.1;;;2.9;;
51491;SDS011;37569;50.548;8.778;2022-12-31T13:03:14;3;;;2;;
51491;SDS011;37569;50.548;8.778;2022-12-31T13:08:12;4.6;;;2;;
51491;SDS011;37569;50.548;8.778;2022-12-31T13:13:12;2.6;;;1.9;;
51491;SDS011;37569;50.548;8.778;2022-12-31T13:18:12;4;;;2.1;;
51491;SDS011;37569;50.548;8.778;2022-12-31T13:23:13;2.9;;;1.8;;
51491;SDS011;37569;50.548;8.778;2022-12-31T13:28:12;3.3;;;1.6;;
51491;SDS011;37569;50.548;8.778;2022-12-31T13:33:14;3.8;;;2.1;;
51491;SDS011;37569;50.548;8.778;2022-12-31T13:38:15;2.5;;;1.8;;
51491;SDS011;37569;50.548;8.778;2022-12-31T13:43:15;3.1;;;1.8;;
51491;SDS011;37569;50.548;8.778;2022-12-31T13:48:16;4.4;;;2;;
51491;SDS011;37569;50.548;8.778;2022-12-31T13:53:18;4.2;;;2;;
51491;SDS011;37569;50.548;8.778;2022-12-31T13:58:18;4.2;;;2;;
51491;SDS011;37569;50.548;8.778;2022-12-31T14:03:18;3.6;;;2;;
51491;SDS011;37569;50.548;8.778;2022-12-31T14:13:23;3.6;;;2.1;;
51491;SDS011;37569;50.548;8.778;2022-12-31T14:18:20;3.4;;;2.5;;
51491;SDS011;37569;50.548;8.778;2022-12-31T14:23:22;6.2;;;4.4;;
51491;SDS011;37569;50.548;8.778;2022-12-31T14:28:23;4.4;;;2.8;;
51491;SDS011;37569;50.548;8.778;2022-12-31T14:33:26;7.2;;;4.6;;
51491;SDS011;37569;50.548;8.778;2022-12-31T14:38:25;5.1;;;3.5;;
51491;SDS011;37569;50.548;8.778;2022-12-31T14:43:24;5.8;;;3.5;;
51491;SDS011;37569;50.548;8.778;2022-12-31T14:48:27;4.6;;;2.9;;
51491;SDS011;37569;50.548;8.778;2022-12-31T14:53:25;5.1;;;3.3;;
51491;SDS011;37569;50.548;8.778;2022-12-31T14:58:29;3.5;;;2.6;;
51491;SDS011;37569;50.548;8.778;2022-12-31T15:03:32;3.8;;;2.4;;
51491;SDS011;37569;50.548;8.778;2022-12-31T15:08:31;3.9;;;2.5;;
51491;SDS011;37569;50.548;8.778;2022-12-31T15:13:30;4.2;;;2.5;;
51491;SDS011;37569;50.548;8.778;2022-12-31T15:18:30;4;;;2.3;;
51491;SDS011;37569;50.548;8.778;2022-12-31T15:23:30;2.3;;;2.1;;
51491;SDS011;37569;50.548;8.778;2022-12-31T15:28:31;3.7;;;2.3;;
51491;SDS011;37569;50.548;8.778;2022-12-31T15:33:31;3.8;;;2.3;;
51491;SDS011;37569;50.548;8.778;2022-12-31T15:38:32;4;;;2.2;;
51491;SDS011;37569;50.548;8.778;2022-12-31T15:43:34;5;;;2.3;;
51491;SDS011;37569;50.548;8.778;2022-12-31T15:53:33;3.7;;;2.2;;
51491;SDS011;37569;50.548;8.778;2022-12-31T15:58:34;4.6;;;2.1;;
51491;SDS011;37569;50.548;8.778;2022-12-31T16:03:34;3.3;;;2.3;;
51491;SDS011;37569;50.548;8.778;2022-12-31T16:28:37;6.2;;;4.3;;
51491;SDS011;37569;50.548;8.778;2022-12-31T16:33:38;3.7;;;2.2;;
51491;SDS011;37569;50.548;8.778;2022-12-31T16:38:38;2.8;;;2.2;;
51491;SDS011;37569;50.548;8.778;2022-12-31T16:43:40;4.7;;;2.7;;
51491;SDS011;37569;50.548;8.778;2022-12-31T16:48:41;4;;;2.6;;
51491;SDS011;37569;50.548;8.778;2022-12-31T16:53:40;3.3;;;2;;
51491;SDS011;37569;50.548;8.778;2022-12-31T16:58:41;4.3;;;2.3;;
51491;SDS011;37569;50.548;8.778;2022-12-31T17:03:43;3.3;;;1.9;;
51491;SDS011;37569;50.548;8.778;2022-12-31T17:08:43;4.2;;;2.3;;
51491;SDS011;37569;50.548;8.778;2022-12-31T17:13:43;3.3;;;2.5;;
51491;SDS011;37569;50.548;8.778;2022-12-31T17:18:44;2.8;;;1.9;;
51491;SDS011;37569;50.548;8.778;2022-12-31T17:23:48;3.4;;;2.2;;
51491;SDS011;37569;50.548;8.778;2022-12-31T17:28:46;22.7;;;20.4;;
51491;SDS011;37569;50.548;8.778;2022-12-31T17:33:46;7.9;;;7;;
51491;SDS011;37569;50.548;8.778;2022-12-31T17:38:47;4.5;;;3.2;;
51491;SDS011;37569;50.548;8.778;2022-12-31T17:43:49;3.4;;;1.9;;
51491;SDS011;37569;50.548;8.778;2022-12-31T17:48:49;2.7;;;1.7;;
51491;SDS011;37569;50.548;8.778;2022-12-31T17:53:48;3.8;;;1.7;;
51491;SDS011;37569;50.548;8.778;2022-12-31T17:58:50;2.9;;;1.8;;
51491;SDS011;37569;50.548;8.778;2022-12-31T18:03:50;2.6;;;1.8;;
51491;SDS011;37569;50.548;8.778;2022-12-31T18:08:51;3.4;;;2;;
51491;SDS011;37569;50.548;8.778;2022-12-31T18:13:51;3.5;;;1.7;;
51491;SDS011;37569;50.548;8.778;2022-12-31T18:18:52;3.6;;;1.9;;
51491;SDS011;37569;50.548;8.778;2022-12-31T18:23:53;3.7;;;2.1;;
51491;SDS011;37569;50.548;8.778;2022-12-31T18:28:59;3.8;;;2.1;;
51491;SDS011;37569;50.548;8.778;2022-12-31T18:33:55;6.2;;;3.8;;
51491;SDS011;37569;50.548;8.778;2022-12-31T18:38:55;5.5;;;3.3;;
51491;SDS011;37569;50.548;8.778;2022-12-31T18:43:55;4.5;;;2.7;;
51491;SDS011;37569;50.548;8.778;2022-12-31T18:48:56;3.7;;;2.2;;
51491;SDS011;37569;50.548;8.778;2022-12-31T18:53:57;3.5;;;1.9;;
51491;SDS011;37569;50.548;8.778;2022-12-31T18:58:57;3.4;;;2;;
51491;SDS011;37569;50.548;8.778;2022-12-31T19:03:59;4.1;;;2;;
51491;SDS011;37569;50.548;8.778;2022-12-31T19:08:58;3.1;;;1.8;;
51491;SDS011;37569;50.548;8.778;2022-12-31T19:13:59;4.3;;;2;;
51491;SDS011;37569;50.548;8.778;2022-12-31T19:19:00;3.6;;;2.1;;
51491;SDS011;37569;50.548;8.778;2022-12-31T19:24:00;3.7;;;1.8;;
51491;SDS011;37569;50.548;8.778;2022-12-31T19:29:01;3.4;;;1.8;;
51491;SDS011;37569;50.548;8.778;2022-12-31T19:34:02;2.6;;;2;;
51491;SDS011;37569;50.548;8.778;2022-12-31T19:39:03;4.7;;;1.9;;
51491;SDS011;37569;50.548;8.778;2022-12-31T19:44:03;3.9;;;2;;
51491;SDS011;37569;50.548;8.778;2022-12-31T19:49:04;3.7;;;1.8;;
51491;SDS011;37569;50.548;8.778;2022-12-31T19:54:04;4.3;;;2;;
51491;SDS011;37569;50.548;8.778;2022-12-31T19:59:05;3.1;;;1.8;;
51491;SDS011;37569;50.548;8.778;2022-12-31T20:04:06;5.2;;;2;;
51491;SDS011;37569;50.548;8.778;2022-12-31T20:09:06;3.8;;;1.9;;
51491;SDS011;37569;50.548;8.778;2022-12-31T20:14:07;3.3;;;1.9;;
51491;SDS011;37569;50.548;8.778;2022-12-31T20:19:08;4.4;;;2.1;;
51491;SDS011;37569;50.548;8.778;2022-12-31T20:24:08;5.8;;;2.1;;
51491;SDS011;37569;50.548;8.778;2022-12-31T20:29:09;3.5;;;2.6;;
51491;SDS011;37569;50.548;8.778;2022-12-31T20:34:10;2.8;;;2.1;;
51491;SDS011;37569;50.548;8.778;2022-12-31T20:39:10;4;;;2.1;;
51491;SDS011;37569;50.548;8.778;2022-12-31T20:44:12;3.5;;;2.1;;
51491;SDS011;37569;50.548;8.778;2022-12-31T20:49:12;3.8;;;2.1;;
51491;SDS011;37569;50.548;8.778;2022-12-31T20:54:12;5.5;;;2.2;;
51491;SDS011;37569;50.548;8.778;2022-12-31T20:59:13;3.1;;;2.2;;
51491;SDS011;37569;50.548;8.778;2022-12-31T21:04:14;4.4;;;1.9;;
51491;SDS011;37569;50.548;8.778;2022-12-31T21:09:14;2.8;;;2;;
51491;SDS011;37569;50.548;8.778;2022-12-31T21:14:15;3.7;;;2.2;;
51491;SDS011;37569;50.548;8.778;2022-12-31T21:19:15;4;;;2.2;;
51491;SDS011;37569;50.548;8.778;2022-12-31T21:24:16;3.6;;;2.4;;
51491;SDS011;37569;50.548;8.778;2022-12-31T21:29:16;3.9;;;2.1;;
51491;SDS011;37569;50.548;8.778;2022-12-31T21:34:17;4.3;;;2.3;;
51491;SDS011;37569;50.548;8.778;2022-12-31T21:39:18;4.4;;;2.5;;
51491;SDS011;37569;50.548;8.778;2022-12-31T21:44:19;5.2;;;2.5;;
51491;SDS011;37569;50.548;8.778;2022-12-31T21:49:19;2.9;;;2.3;;
51491;SDS011;37569;50.548;8.778;2022-12-31T21:54:19;5.1;;;2.6;;
51491;SDS011;37569;50.548;8.778;2022-12-31T21:59:20;6.4;;;2.7;;
51491;SDS011;37569;50.548;8.778;2022-12-31T22:04:21;4.1;;;2.6;;
51491;SDS011;37569;50.548;8.778;2022-12-31T22:09:21;3.6;;;2.6;;
51491;SDS011;37569;50.548;8.778;2022-12-31T22:14:22;3.8;;;2.4;;
51491;SDS011;37569;50.548;8.778;2022-12-31T22:19:23;4.1;;;2.4;;
51491;SDS011;37569;50.548;8.778;2022-12-31T22:24:23;4;;;2.2;;
51491;SDS011;37569;50.548;8.778;2022-12-31T22:29:24;3.6;;;2.3;;
51491;SDS011;37569;50.548;8.778;2022-12-31T22:34:25;4.3;;;2.4;;
51491;SDS011;37569;50.548;8.778;2022-12-31T22:39:25;3.7;;;2.2;;
51491;SDS011;37569;50.548;8.778;2022-12-31T22:44:26;3.9;;;2.4;;
51491;SDS011;37569;50.548;8.778;2022-12-31T22:49:26;6.8;;;2.9;;
51491;SDS011;37569;50.548;8.778;2022-12-31T22:54:27;6.9;;;4.5;;
51491;SDS011;37569;50.548;8.778;2022-12-31T22:59:28;4.2;;;2.7;;
51491;SDS011;37569;50.548;8.778;2022-12-31T23:04:28;3.3;;;2.4;;
51491;SDS011;37569;50.548;8.778;2022-12-31T23:09:29;14;;;9.9;;
51491;SDS011;37569;50.548;8.778;2022-12-31T23:14:30;10.5;;;8.1;;
51491;SDS011;37569;50.548;8.778;2022-12-31T23:19:30;5.9;;;4.3;;
51491;SDS011;37569;50.548;8.778;2022-12-31T23:24:31;5.6;;;4.6;;
51491;SDS011;37569;50.548;8.778;2022-12-31T23:29:31;9.8;;;7.1;;
51491;SDS011;37569;50.548;8.778;2022-12-31T23:34:32;7.6;;;5.2;;
51491;SDS011;37569;50.548;8.778;2022-12-31T23:39:32;8.6;;;5.6;;
51491;SDS011;37569;50.548;8.778;2022-12-31T23:44:33;10;;;7.1;;
51491;SDS011;37569;50.548;8.778;2022-12-31T23:49:34;12.2;;;8.6;;
51491;SDS011;37569;50.548;8.778;2022-12-31T23:54:34;14.3;;;9.2;;
51491;SDS011;37569;50.548;8.778;2022-12-31T23:59:35;14.3;;;9.4;;
